Time;durP1;ratioP1;P1;durP2;ratioP2;P2;SDS_P1;SDS_P2;PMS_P1;PMS_P2;Temp;Humidity;BMP_temperature;BMP_pressure;BME280_temperature;BME280_humidity;BME280_pressure;Samples;Min_cycle;Max_cycle;Signal;HPM_P1;HPM_P2
2022/02/15 00:00:57;;;;;;;4.00;1.30;;;6.50;99.90;;;;;;5008799;28;20034;-90
2022/02/15 00:03:23;;;;;;;3.88;1.85;;;6.50;99.90;;;;;;5007343;28;20034;-88
2022/02/15 00:05:49;;;;;;;2.67;1.80;;;6.60;99.90;;;;;;5009965;28;20036;-86
2022/02/15 00:08:14;;;;;;;3.53;2.30;;;6.70;99.90;;;;;;5008165;28;20026;-87
2022/02/15 00:10:40;;;;;;;4.65;2.15;;;6.60;99.90;;;;;;5010384;28;20045;-88
2022/02/15 00:13:06;;;;;;;4.45;2.15;;;6.60;99.90;;;;;;5004642;28;20125;-90
2022/02/15 00:15:31;;;;;;;3.13;2.20;;;6.70;99.90;;;;;;5017926;28;20034;-90
2022/02/15 00:17:58;;;;;;;3.17;2.08;;;6.70;99.90;;;;;;5000178;28;20484;-93
2022/02/15 00:20:26;;;;;;;5.75;2.58;;;6.70;99.90;;;;;;5000246;28;20030;-92
2022/02/15 00:22:52;;;;;;;6.47;2.47;;;6.70;99.90;;;;;;5000176;28;20053;-91
2022/02/15 00:25:20;;;;;;;4.68;2.53;;;6.80;99.90;;;;;;4999531;28;20026;-91
2022/02/15 00:27:46;;;;;;;4.82;2.80;;;6.80;99.90;;;;;;4999212;28;20034;-90
2022/02/15 00:30:12;;;;;;;3.97;2.70;;;6.80;99.90;;;;;;4999329;28;20092;-91
2022/02/15 00:32:37;;;;;;;5.50;3.03;;;6.80;99.90;;;;;;5016865;28;20030;-92
2022/02/15 00:35:04;;;;;;;5.40;2.97;;;6.80;99.90;;;;;;4999631;28;20038;-89
2022/02/15 00:37:29;;;;;;;5.85;3.00;;;6.90;99.90;;;;;;5016747;28;20057;-90
2022/02/15 00:39:55;;;;;;;5.80;3.88;;;6.90;99.90;;;;;;4999100;28;20500;-90
2022/02/15 00:42:20;;;;;;;6.10;3.72;;;6.90;99.90;;;;;;4998938;28;20170;-90
2022/02/15 00:44:46;;;;;;;7.18;4.20;;;6.90;99.90;;;;;;4999249;28;20073;-89
2022/02/15 00:47:12;;;;;;;6.82;4.40;;;6.90;99.90;;;;;;5016288;28;20058;-89
2022/02/15 00:49:37;;;;;;;6.70;3.72;;;6.90;99.90;;;;;;4999022;28;20464;-90
2022/02/15 00:52:03;;;;;;;6.65;4.07;;;6.90;99.90;;;;;;4998838;28;20045;-90
2022/02/15 00:54:29;;;;;;;5.40;3.58;;;6.90;99.90;;;;;;5016371;28;20030;-90
2022/02/15 00:56:55;;;;;;;9.05;4.72;;;6.90;99.90;;;;;;5016127;28;20069;-91
2022/02/15 00:59:20;;;;;;;8.15;4.63;;;6.90;99.90;;;;;;4998873;28;20037;-90
2022/02/15 01:01:46;;;;;;;7.30;5.05;;;6.90;99.90;;;;;;4998519;28;20022;-90
2022/02/15 01:04:12;;;;;;;10.07;4.90;;;7.00;99.90;;;;;;4998763;28;20053;-90
2022/02/15 01:06:38;;;;;;;9.88;4.93;;;6.90;99.90;;;;;;4998874;28;20439;-91
2022/02/15 01:09:03;;;;;;;9.80;4.97;;;6.90;99.90;;;;;;4999126;28;20499;-90
2022/02/15 01:11:29;;;;;;;8.13;5.20;;;6.90;99.90;;;;;;4998695;28;20062;-91
2022/02/15 01:13:55;;;;;;;9.73;5.25;;;6.90;99.90;;;;;;5015831;28;20088;-90
2022/02/15 01:16:20;;;;;;;9.82;5.65;;;6.80;99.90;;;;;;4998274;28;20492;-90
2022/02/15 01:18:46;;;;;;;10.10;5.70;;;6.80;99.90;;;;;;4998188;28;20082;-89
2022/02/15 01:21:12;;;;;;;8.85;5.60;;;6.80;99.90;;;;;;4999056;28;20452;-90
2022/02/15 01:23:38;;;;;;;11.55;5.55;;;6.70;99.90;;;;;;5016338;28;20423;-91
2022/02/15 01:26:05;;;;;;;10.02;5.75;;;6.80;99.90;;;;;;4998230;28;20503;-91
2022/02/15 01:28:34;;;;;;;11.18;5.60;;;6.70;99.90;;;;;;4997924;28;20045;-90
2022/02/15 01:31:00;;;;;;;8.95;5.47;;;6.70;99.90;;;;;;4997557;28;20033;-91
2022/02/15 01:33:26;;;;;;;9.38;5.20;;;6.70;99.90;;;;;;4997681;28;20049;-88
2022/02/15 01:35:52;;;;;;;10.73;5.95;;;6.70;99.90;;;;;;4997911;28;20443;-91
2022/02/15 01:38:17;;;;;;;11.20;5.60;;;6.70;99.90;;;;;;5015671;28;20038;-90
2022/02/15 01:40:43;;;;;;;11.25;6.82;;;6.70;99.90;;;;;;4998458;28;20026;-91
2022/02/15 01:43:09;;;;;;;12.10;6.50;;;6.70;99.90;;;;;;4998115;28;20026;-92
2022/02/15 01:45:34;;;;;;;11.77;6.43;;;6.70;99.90;;;;;;5015877;28;20030;-91
2022/02/15 01:48:00;;;;;;;10.55;5.88;;;6.70;99.90;;;;;;4998444;28;20038;-91
2022/02/15 01:50:26;;;;;;;11.75;6.75;;;6.70;99.90;;;;;;4998087;28;20061;-89
2022/02/15 01:52:52;;;;;;;10.77;6.25;;;6.70;99.90;;;;;;4998097;28;20088;-90
2022/02/15 01:55:18;;;;;;;9.23;5.68;;;6.70;99.90;;;;;;5014368;28;20507;-90
2022/02/15 01:57:45;;;;;;;9.77;5.70;;;6.70;99.90;;;;;;4997506;28;20467;-90
2022/02/15 02:00:14;;;;;;;10.90;5.85;;;6.70;99.90;;;;;;4998006;28;20022;-89
2022/02/15 02:02:42;;;;;;;11.45;5.95;;;6.70;99.90;;;;;;4997848;28;20079;-90
2022/02/15 02:07:52;;;;;;;9.80;5.40;;;6.70;99.90;;;;;;5015826;28;20629;-89
2022/02/15 02:10:18;;;;;;;8.13;6.15;;;6.70;99.90;;;;;;4998284;28;20053;-90
2022/02/15 02:12:43;;;;;;;10.57;5.75;;;6.60;99.90;;;;;;5016682;28;20274;-91
2022/02/15 02:15:21;;;;;;;9.02;5.70;;;6.60;99.90;;;;;;4999317;28;20436;-92
2022/02/15 02:17:47;;;;;;;10.82;5.78;;;6.60;99.90;;;;;;5004989;28;20050;-90
2022/02/15 02:20:17;;;;;;;10.57;5.85;;;6.60;99.90;;;;;;5005555;28;20029;-92
2022/02/15 02:22:43;;;;;;;13.27;6.07;;;6.60;99.90;;;;;;5003889;28;20504;-90
2022/02/15 02:25:12;;;;;;;11.32;5.78;;;6.60;99.90;;;;;;5003764;28;20065;-91
2022/02/15 02:27:39;;;;;;;9.25;5.80;;;6.50;99.90;;;;;;5004734;28;20033;-92
2022/02/15 02:30:06;;;;;;;9.90;5.63;;;6.50;99.90;;;;;;4999327;28;20035;-88
2022/02/15 02:32:32;;;;;;;11.40;5.38;;;6.50;99.90;;;;;;4994983;28;20022;-90
2022/02/15 02:35:04;;;;;;;10.15;4.78;;;6.40;99.90;;;;;;4994624;28;20023;-90
2022/02/15 02:37:29;;;;;;;12.18;5.65;;;6.40;99.90;;;;;;4994838;28;20101;-90
2022/02/15 02:39:56;;;;;;;8.40;4.75;;;6.30;99.90;;;;;;4994630;28;20493;-90
2022/02/15 02:42:26;;;;;;;8.75;4.80;;;6.30;99.90;;;;;;4995014;28;20022;-94
2022/02/15 02:44:56;;;;;;;7.13;4.05;;;6.30;99.90;;;;;;4996137;28;20049;-90
2022/02/15 02:47:22;;;;;;;8.45;3.92;;;6.20;99.90;;;;;;4999551;28;20060;-90
2022/02/15 02:49:48;;;;;;;8.73;4.22;;;6.20;99.90;;;;;;5005703;28;20032;-88
2022/02/15 02:52:14;;;;;;;8.80;3.88;;;6.20;99.90;;;;;;5004575;28;20102;-89
2022/02/15 02:54:41;;;;;;;9.57;4.15;;;6.20;99.90;;;;;;5002746;28;20049;-88
2022/02/15 02:57:06;;;;;;;8.15;3.95;;;6.20;99.90;;;;;;4997299;28;20034;-89
2022/02/15 02:59:33;;;;;;;8.45;3.55;;;6.20;99.90;;;;;;4994427;28;20038;-91
2022/02/15 03:01:58;;;;;;;7.95;3.92;;;6.20;99.90;;;;;;4994593;28;20172;-91
2022/02/15 03:04:24;;;;;;;6.57;3.35;;;6.20;99.90;;;;;;4994534;28;20078;-90
2022/02/15 03:06:50;;;;;;;6.72;3.47;;;6.30;99.90;;;;;;4994210;28;20094;-90
2022/02/15 03:09:16;;;;;;;5.03;3.35;;;6.30;99.90;;;;;;4993739;28;20035;-90
2022/02/15 03:11:42;;;;;;;11.50;3.70;;;6.30;99.90;;;;;;4994148;28;20029;-89
2022/02/15 03:14:07;;;;;;;6.90;2.92;;;6.30;99.90;;;;;;4993963;28;20027;-90
2022/02/15 03:16:33;;;;;;;7.15;3.00;;;6.30;99.90;;;;;;4993916;28;20101;-90
2022/02/15 03:18:59;;;;;;;7.75;3.40;;;6.30;99.90;;;;;;4993442;28;20523;-88
2022/02/15 03:21:25;;;;;;;11.30;4.00;;;6.30;99.90;;;;;;4995232;28;20461;-90
2022/02/15 03:23:51;;;;;;;7.40;3.00;;;6.30;99.90;;;;;;4994443;28;20039;-90
2022/02/15 03:26:17;;;;;;;6.40;3.15;;;6.30;99.90;;;;;;4993083;28;20029;-89
2022/02/15 03:28:43;;;;;;;6.00;3.45;;;6.40;99.90;;;;;;4993328;28;20105;-90
2022/02/15 03:31:09;;;;;;;9.15;3.38;;;6.40;99.90;;;;;;4994441;28;20134;-89
2022/02/15 03:33:35;;;;;;;5.20;2.95;;;6.40;99.90;;;;;;4992855;28;20066;-88
2022/02/15 03:36:02;;;;;;;6.53;3.08;;;6.40;99.90;;;;;;4992835;28;20026;-90
2022/02/15 03:38:28;;;;;;;7.45;3.80;;;6.40;99.90;;;;;;4993666;28;20046;-89
2022/02/15 03:43:38;;;;;;;6.75;3.20;;;6.50;99.90;;;;;;4996412;28;20097;-89
2022/02/15 03:46:04;;;;;;;7.35;3.63;;;6.50;99.90;;;;;;4997137;28;20046;-89
2022/02/15 03:48:29;;;;;;;8.65;3.72;;;6.50;99.90;;;;;;4980021;28;20038;-89
2022/02/15 03:50:55;;;;;;;7.03;3.97;;;6.50;99.90;;;;;;4996849;28;20468;-90
2022/02/15 03:53:20;;;;;;;9.63;4.95;;;6.50;99.90;;;;;;4998091;28;20045;-90
2022/02/15 03:55:47;;;;;;;7.38;3.60;;;6.50;99.90;;;;;;4980981;28;20023;-89
2022/02/15 03:58:13;;;;;;;8.00;3.95;;;6.50;99.90;;;;;;4996248;28;20132;-90
2022/02/15 04:00:39;;;;;;;8.07;4.05;;;6.50;99.90;;;;;;4997093;28;20057;-90
2022/02/15 04:03:05;;;;;;;8.20;3.80;;;6.50;99.90;;;;;;4979778;28;20480;-88
2022/02/15 04:05:31;;;;;;;7.85;4.05;;;6.50;99.90;;;;;;4996543;28;20042;-89
2022/02/15 04:08:00;;;;;;;7.45;4.10;;;6.50;99.90;;;;;;4980059;28;20026;-89
2022/02/15 04:10:26;;;;;;;6.18;3.60;;;6.50;99.90;;;;;;4996439;28;20044;-90
2022/02/15 04:12:52;;;;;;;7.55;3.33;;;6.50;99.90;;;;;;4996241;28;20031;-90
2022/02/15 04:15:19;;;;;;;6.28;3.67;;;6.50;99.90;;;;;;4996657;28;20379;-90
2022/02/15 04:17:44;;;;;;;9.75;4.25;;;6.50;99.90;;;;;;4980874;28;20149;-90
2022/02/15 04:20:11;;;;;;;9.27;4.70;;;6.50;99.90;;;;;;4996983;28;20065;-90
2022/02/15 04:22:37;;;;;;;7.93;4.28;;;6.50;99.90;;;;;;4996566;28;20085;-89
2022/02/15 04:25:04;;;;;;;6.35;3.88;;;6.50;99.90;;;;;;4996622;28;20406;-89
2022/02/15 04:27:31;;;;;;;9.40;4.50;;;6.50;99.90;;;;;;4996536;28;20401;-90
2022/02/15 04:29:57;;;;;;;9.48;4.15;;;6.50;99.90;;;;;;4995807;28;20030;-90
2022/02/15 04:32:23;;;;;;;10.25;4.60;;;6.50;99.90;;;;;;4996415;28;20133;-90
2022/02/15 04:34:49;;;;;;;8.23;4.68;;;6.50;99.90;;;;;;4997482;28;20065;-89
2022/02/15 04:37:15;;;;;;;8.75;4.82;;;6.50;99.90;;;;;;4996948;28;20038;-90
2022/02/15 04:39:41;;;;;;;8.80;5.13;;;6.50;99.90;;;;;;4995858;28;20130;-90
2022/02/15 04:42:07;;;;;;;9.88;4.60;;;6.50;99.90;;;;;;4996373;28;20057;-87
2022/02/15 04:44:33;;;;;;;9.18;5.25;;;6.50;99.90;;;;;;4995859;28;20053;-90
2022/02/15 04:46:59;;;;;;;12.38;5.65;;;6.50;99.90;;;;;;4995897;28;20042;-89
2022/02/15 04:49:25;;;;;;;12.50;5.65;;;6.50;99.90;;;;;;4996740;28;20038;-89
2022/02/15 04:51:51;;;;;;;13.60;6.15;;;6.60;99.90;;;;;;4995597;28;20124;-89
2022/02/15 04:54:20;;;;;;;11.43;7.00;;;6.50;99.90;;;;;;4975815;28;20136;-89
2022/02/15 04:56:45;;;;;;;12.20;6.90;;;6.60;99.90;;;;;;4992845;28;20030;-89
2022/02/15 04:59:11;;;;;;;11.10;6.00;;;6.60;99.90;;;;;;4995405;28;20520;-92
2022/02/15 05:01:38;;;;;;;11.48;7.18;;;6.60;99.90;;;;;;4995543;28;20040;-90
2022/02/15 05:04:03;;;;;;;9.75;5.95;;;6.60;99.90;;;;;;4978610;28;20034;-90
2022/02/15 05:06:29;;;;;;;11.35;7.85;;;6.60;99.90;;;;;;4992446;28;20382;-89
2022/02/15 05:08:55;;;;;;;13.60;7.35;;;6.60;99.90;;;;;;4993904;28;20050;-90
2022/02/15 05:11:21;;;;;;;14.25;7.32;;;6.60;99.90;;;;;;4995516;28;20036;-91
2022/02/15 05:13:46;;;;;;;12.40;7.43;;;6.60;99.90;;;;;;4994780;28;20044;-90
2022/02/15 05:16:12;;;;;;;14.02;8.23;;;6.70;99.90;;;;;;4994868;28;20501;-90
2022/02/15 05:18:37;;;;;;;16.05;7.68;;;6.70;99.90;;;;;;4995072;28;20069;-90
2022/02/15 05:21:03;;;;;;;12.00;7.88;;;6.60;99.90;;;;;;4995030;28;20520;-90
2022/02/15 05:23:30;;;;;;;13.27;8.73;;;6.70;99.90;;;;;;4995075;28;20161;-90
2022/02/15 05:25:56;;;;;;;14.88;9.68;;;6.70;99.90;;;;;;4994060;28;20019;-90
2022/02/15 05:28:22;;;;;;;16.10;9.52;;;6.70;99.90;;;;;;4994871;28;20034;-88
2022/02/15 05:30:48;;;;;;;15.27;9.52;;;6.70;99.90;;;;;;4994973;28;20117;-91
2022/02/15 05:33:13;;;;;;;18.25;10.77;;;6.70;99.90;;;;;;4994396;28;20142;-89
2022/02/15 05:35:40;;;;;;;13.70;9.50;;;6.70;99.90;;;;;;4995266;28;20026;-89
2022/02/15 05:38:06;;;;;;;18.55;11.73;;;6.70;99.90;;;;;;4994437;28;20038;-90
2022/02/15 05:40:32;;;;;;;16.20;11.82;;;6.70;99.90;;;;;;4994772;28;20031;-88
2022/02/15 05:42:57;;;;;;;15.95;9.93;;;6.70;99.90;;;;;;4993980;28;20054;-88
2022/02/15 05:45:23;;;;;;;19.65;12.90;;;6.60;99.90;;;;;;4994365;28;20030;-89
2022/02/15 05:47:49;;;;;;;21.33;13.68;;;6.60;99.90;;;;;;4994216;28;20489;-87
2022/02/15 05:52:59;;;;;;;26.65;15.65;;;6.70;99.90;;;;;;4992464;28;20042;-90
2022/02/15 05:55:24;;;;;;;22.80;14.20;;;6.70;99.90;;;;;;4992370;28;20512;-89
2022/02/15 05:57:53;;;;;;;20.65;13.85;;;6.70;99.90;;;;;;4995304;28;20271;-91
2022/02/15 06:00:19;;;;;;;19.58;13.70;;;6.70;99.90;;;;;;4977536;28;20042;-88
2022/02/15 06:02:48;;;;;;;21.65;14.55;;;6.70;99.90;;;;;;4996891;28;20168;-86
2022/02/15 06:05:14;;;;;;;22.75;15.63;;;6.70;99.90;;;;;;4995390;28;20104;-86
2022/02/15 06:07:40;;;;;;;20.13;13.85;;;6.70;99.90;;;;;;4997948;28;20120;-89
2022/02/15 06:10:07;;;;;;;18.83;12.82;;;6.70;99.90;;;;;;4994826;28;20074;-90
2022/02/15 06:12:36;;;;;;;22.23;13.88;;;6.70;99.90;;;;;;4998140;28;20038;-85
2022/02/15 06:15:02;;;;;;;21.00;13.95;;;6.70;99.90;;;;;;4995401;28;20042;-89
2022/02/15 06:17:30;;;;;;;22.90;14.35;;;6.70;99.90;;;;;;4994357;28;20046;-91
2022/02/15 06:19:56;;;;;;;22.52;15.13;;;6.60;99.90;;;;;;4997632;28;20421;-89
2022/02/15 06:22:22;;;;;;;20.45;14.07;;;6.70;99.90;;;;;;4993292;28;20062;-88
2022/02/15 06:24:47;;;;;;;20.95;14.95;;;6.70;99.90;;;;;;5009330;28;20041;-89
2022/02/15 06:27:13;;;;;;;23.02;17.10;;;6.70;99.90;;;;;;4995349;28;20037;-88
2022/02/15 06:29:39;;;;;;;22.13;16.05;;;6.70;99.90;;;;;;4990917;28;20463;-87
2022/02/15 06:32:05;;;;;;;22.38;15.57;;;6.70;99.90;;;;;;4998993;28;20480;-88
2022/02/15 06:34:31;;;;;;;25.90;16.30;;;6.70;99.90;;;;;;5011839;28;20112;-89
2022/02/15 06:36:57;;;;;;;21.70;14.75;;;6.70;99.90;;;;;;5018408;28;20062;-92
2022/02/15 06:39:23;;;;;;;22.20;14.98;;;6.70;99.90;;;;;;5001893;28;20046;-92
2022/02/15 06:41:48;;;;;;;24.98;15.45;;;6.80;99.90;;;;;;4997979;28;20037;-90
2022/02/15 06:44:14;;;;;;;21.10;14.73;;;6.80;99.90;;;;;;5013316;28;20719;-91
2022/02/15 06:46:40;;;;;;;20.70;14.02;;;6.80;99.90;;;;;;5012338;28;20084;-90
2022/02/15 06:49:05;;;;;;;22.25;15.77;;;6.80;99.90;;;;;;5019835;28;20034;-89
2022/02/15 06:51:31;;;;;;;23.73;15.95;;;6.80;99.90;;;;;;5003578;28;20029;-87
2022/02/15 06:53:57;;;;;;;26.35;16.38;;;6.80;99.90;;;;;;5013135;28;20116;-88
2022/02/15 06:56:22;;;;;;;25.58;16.23;;;6.80;99.90;;;;;;4996918;28;20036;-86
2022/02/15 06:58:48;;;;;;;22.33;15.90;;;6.80;99.90;;;;;;5014676;28;20041;-89
2022/02/15 07:01:14;;;;;;;24.92;16.38;;;6.80;99.90;;;;;;5013069;28;20030;-89
2022/02/15 07:03:40;;;;;;;27.95;17.08;;;6.80;99.90;;;;;;5011950;28;20042;-88
2022/02/15 07:06:06;;;;;;;23.38;15.13;;;6.80;99.90;;;;;;5009643;28;20021;-90
2022/02/15 07:08:32;;;;;;;25.85;16.33;;;6.80;99.90;;;;;;5017621;28;20033;-88
2022/02/15 07:10:58;;;;;;;29.98;17.85;;;6.80;99.90;;;;;;5009168;28;20026;-90
2022/02/15 07:13:25;;;;;;;25.48;15.35;;;6.80;99.90;;;;;;5006136;28;20034;-88
2022/02/15 07:15:51;;;;;;;20.42;14.77;;;6.90;99.90;;;;;;5018111;28;20136;-91
2022/02/15 07:18:17;;;;;;;23.17;14.00;;;6.90;99.90;;;;;;5018024;28;20493;-90
2022/02/15 07:20:43;;;;;;;25.00;15.70;;;6.90;99.90;;;;;;5000918;28;20037;-89
2022/02/15 07:23:10;;;;;;;25.67;15.57;;;6.90;99.90;;;;;;4996593;28;20031;-89
2022/02/15 07:25:37;;;;;;;28.38;16.08;;;7.00;99.90;;;;;;4996887;28;20109;-87
2022/02/15 07:28:03;;;;;;;21.98;14.27;;;6.90;99.90;;;;;;4999491;28;20034;-90
2022/02/15 07:30:29;;;;;;;20.08;12.93;;;6.90;99.90;;;;;;5004347;28;20038;-89
2022/02/15 07:32:56;;;;;;;28.65;16.42;;;6.90;99.90;;;;;;5000103;28;20025;-91
2022/02/15 07:35:22;;;;;;;26.02;15.77;;;6.90;99.90;;;;;;5016654;28;20030;-92
2022/02/15 07:37:51;;;;;;;24.48;14.45;;;6.90;99.90;;;;;;5017161;28;20085;-88
2022/02/15 07:40:21;;;;;;;27.17;16.25;;;6.90;99.90;;;;;;5000946;28;20092;-92
2022/02/15 07:42:47;;;;;;;23.52;14.25;;;6.90;99.90;;;;;;5012521;28;20488;-91
2022/02/15 07:45:17;;;;;;;22.70;14.23;;;6.90;99.90;;;;;;5009492;28;20489;-91
2022/02/15 07:47:48;;;;;;;26.42;14.68;;;6.90;99.90;;;;;;4998560;28;20041;-90
2022/02/15 07:50:15;;;;;;;25.33;14.75;;;6.90;99.90;;;;;;5014505;28;20484;-90
2022/02/15 07:52:41;;;;;;;23.40;13.25;;;6.90;99.90;;;;;;5009026;28;20041;-86
2022/02/15 07:55:07;;;;;;;29.52;15.23;;;7.00;99.90;;;;;;5027079;28;20029;-91
2022/02/15 07:57:33;;;;;;;24.05;14.27;;;7.00;99.90;;;;;;5012097;28;20057;-90
2022/02/15 07:59:58;;;;;;;21.48;12.95;;;7.00;99.90;;;;;;5003878;28;20034;-92
2022/02/15 08:02:24;;;;;;;20.85;11.93;;;6.90;99.90;;;;;;5004472;28;20385;-91
2022/02/15 08:04:50;;;;;;;23.77;13.85;;;6.90;99.90;;;;;;5019640;28;20084;-91
2022/02/15 08:07:15;;;;;;;23.73;13.73;;;6.80;99.90;;;;;;5024064;28;20029;-90
2022/02/15 08:09:41;;;;;;;20.17;11.77;;;6.80;99.90;;;;;;5044421;28;20025;-92
2022/02/15 08:12:17;;;;;;;24.27;12.70;;;6.80;99.90;;;;;;5012765;28;20507;-92
2022/02/15 08:14:43;;;;;;;24.90;13.25;;;7.00;99.90;;;;;;4999268;28;20039;-94
2022/02/15 08:17:12;;;;;;;25.05;13.07;;;7.00;99.90;;;;;;4997518;28;20104;-91
2022/02/15 08:19:37;;;;;;;22.92;11.43;;;7.20;99.90;;;;;;4994852;28;20038;-89
2022/02/15 08:22:03;;;;;;;22.08;10.82;;;7.30;99.90;;;;;;4996233;28;20057;-87
2022/02/15 08:24:29;;;;;;;18.73;9.82;;;7.40;99.90;;;;;;4996576;28;20034;-89
2022/02/15 08:27:00;;;;;;;18.92;10.60;;;7.40;99.90;;;;;;4998765;28;20026;-90
2022/02/15 08:29:27;;;;;;;21.05;9.93;;;7.40;99.90;;;;;;5004024;28;20101;-94
2022/02/15 08:31:54;;;;;;;20.50;9.75;;;7.50;99.90;;;;;;4997366;28;20045;-92
2022/02/15 08:34:19;;;;;;;20.80;9.30;;;7.50;99.90;;;;;;4985004;28;20132;-90
2022/02/15 08:36:46;;;;;;;14.60;8.10;;;7.40;99.90;;;;;;5007840;28;20065;-91
2022/02/15 08:39:15;;;;;;;16.55;7.45;;;7.40;99.90;;;;;;5006442;28;20038;-90
2022/02/15 08:41:41;;;;;;;20.88;8.75;;;7.40;99.90;;;;;;5012428;28;20431;-90
2022/02/15 08:44:07;;;;;;;15.48;7.22;;;7.40;99.90;;;;;;5024030;28;20041;-89
2022/02/15 08:46:33;;;;;;;19.45;7.63;;;7.50;99.90;;;;;;5009272;28;20034;-91
2022/02/15 08:48:58;;;;;;;22.00;7.97;;;7.60;99.90;;;;;;5021478;28;20030;-90
2022/02/15 08:51:24;;;;;;;14.93;7.40;;;7.70;99.90;;;;;;5009816;28;20115;-90
2022/02/15 08:53:51;;;;;;;18.60;6.55;;;7.80;99.90;;;;;;5009570;28;20038;-90
2022/02/15 08:56:20;;;;;;;17.45;7.38;;;7.90;99.90;;;;;;4998876;28;20030;-94
2022/02/15 08:58:47;;;;;;;16.70;7.00;;;7.90;99.90;;;;;;4983063;28;20523;-91
2022/02/15 09:01:13;;;;;;;13.65;6.60;;;8.00;99.90;;;;;;5002418;28;20044;-92
2022/02/15 09:03:39;;;;;;;16.75;6.70;;;8.10;99.90;;;;;;4999757;28;20125;-90
2022/02/15 09:06:05;;;;;;;16.63;5.80;;;8.20;99.90;;;;;;5017233;28;20025;-91
2022/02/15 09:08:31;;;;;;;14.35;5.45;;;8.10;99.90;;;;;;5003198;28;20030;-91
2022/02/15 09:10:58;;;;;;;18.10;5.57;;;8.00;99.90;;;;;;5025872;28;20120;-90
2022/02/15 09:13:24;;;;;;;15.75;5.13;;;8.00;99.90;;;;;;5012411;28;20026;-89
2022/02/15 09:15:53;;;;;;;14.95;5.93;;;8.00;99.90;;;;;;5001243;28;20484;-90
2022/02/15 09:18:18;;;;;;;17.33;6.40;;;8.00;99.90;;;;;;5001782;28;20034;-90
2022/02/15 09:20:44;;;;;;;12.15;5.88;;;8.00;99.90;;;;;;5026427;28;20026;-92
2022/02/15 09:23:10;;;;;;;12.13;5.63;;;8.00;99.90;;;;;;5001710;28;20030;-91
2022/02/15 09:25:36;;;;;;;13.68;5.38;;;8.00;99.90;;;;;;5000828;28;20125;-89
2022/02/15 09:28:03;;;;;;;17.48;6.25;;;8.30;99.90;;;;;;4999879;28;20035;-90
2022/02/15 10:55:51;;;;;;;9.60;2.40;;;11.50;99.90;;;;;;4860392;29;20050;-90
2022/02/15 10:58:18;;;;;;;8.77;1.80;;;11.10;99.90;;;;;;4848387;29;20050;-90
2022/02/15 11:00:45;;;;;;;10.98;1.90;;;10.60;99.90;;;;;;4844443;29;20053;-90
2022/02/15 11:03:12;;;;;;;5.57;1.92;;;10.30;99.90;;;;;;4847461;29;20044;-88
2022/02/15 11:05:40;;;;;;;10.70;2.92;;;10.20;99.90;;;;;;4862818;29;20045;-89
2022/02/15 11:08:24;;;;;;;10.60;2.20;;;10.60;99.90;;;;;;4864935;29;20319;-92
2022/02/15 11:11:14;;;;;;;6.55;1.63;;;11.90;99.90;;;;;;4865706;29;20044;-94
2022/02/15 11:13:41;;;;;;;8.98;1.58;;;13.90;99.90;;;;;;4883981;29;20779;-92
2022/02/15 11:16:18;;;;;;;5.38;1.67;;;14.40;99.90;;;;;;4904374;29;20041;-91
2022/02/15 11:18:45;;;;;;;10.95;1.88;;;13.70;99.90;;;;;;5019023;28;20514;-93
2022/02/15 11:21:52;;;;;;;4.90;1.30;;;12.60;99.90;;;;;;5020842;28;20041;-93
2022/02/15 11:24:17;;;;;;;6.15;1.63;;;11.90;99.90;;;;;;4993688;28;20037;-90
2022/02/15 11:26:43;;;;;;;5.30;1.30;;;11.60;99.90;;;;;;5013809;28;20044;-92
2022/02/15 11:29:49;;;;;;;7.38;1.95;;;11.50;99.90;;;;;;5018808;28;20048;-95
2022/02/15 11:32:54;;;;;;;6.97;1.63;;;11.20;99.90;;;;;;5017246;28;20035;-94
2022/02/15 11:35:19;;;;;;;5.68;1.50;;;11.60;99.90;;;;;;5039521;28;20030;-87
2022/02/15 11:37:45;;;;;;;7.53;1.55;;;11.90;99.90;;;;;;5027139;28;20061;-89
2022/02/15 11:40:14;;;;;;;5.03;1.20;;;12.20;99.90;;;;;;5020999;28;20509;-91
2022/02/15 11:42:51;;;;;;;5.97;1.17;;;12.60;99.90;;;;;;5022484;28;20487;-91
2022/02/15 11:45:28;;;;;;;5.82;1.40;;;13.60;99.90;;;;;;5053882;28;20566;-91
2022/02/15 11:48:03;;;;;;;5.90;2.03;;;14.10;99.90;;;;;;5027143;28;20036;-89
2022/02/15 11:50:44;;;;;;;5.40;1.30;;;14.60;99.90;;;;;;5029129;28;20033;-92
2022/02/15 11:53:11;;;;;;;7.03;1.65;;;15.10;99.90;;;;;;5026080;28;20033;-92
2022/02/15 11:55:37;;;;;;;4.18;1.00;;;15.30;99.90;;;;;;5014969;28;20086;-90
2022/02/15 11:58:05;;;;;;;6.95;1.77;;;15.40;99.90;;;;;;5025980;28;20044;-91
2022/02/15 12:00:32;;;;;;;6.00;1.15;;;15.50;99.90;;;;;;5012755;28;20034;-90
2022/02/15 12:02:58;;;;;;;6.47;1.42;;;15.10;99.90;;;;;;5022890;28;20018;-91
2022/02/15 12:05:29;;;;;;;6.32;1.40;;;14.90;99.90;;;;;;5049245;28;20537;-90
2022/02/15 12:07:56;;;;;;;6.43;1.42;;;14.90;99.90;;;;;;5030923;28;20053;-89
2022/02/15 12:10:36;;;;;;;4.97;1.58;;;14.40;99.90;;;;;;5034169;28;20043;-91
2022/02/15 12:13:02;;;;;;;4.82;1.33;;;14.30;99.90;;;;;;5025520;28;20053;-92
2022/02/15 12:15:34;;;;;;;6.20;1.85;;;13.80;99.90;;;;;;5025400;28;20041;-92
2022/02/15 12:17:59;;;;;;;7.57;1.50;;;13.90;99.90;;;;;;5028594;28;20125;-93
2022/02/15 12:20:27;;;;;;;4.45;1.30;;;14.20;99.90;;;;;;5024464;28;20042;-91
2022/02/15 12:22:54;;;;;;;4.95;1.40;;;14.70;99.90;;;;;;5027319;28;20120;-90
2022/02/15 12:25:21;;;;;;;7.20;1.88;;;15.20;99.90;;;;;;5029450;28;20032;-89
2022/02/15 12:27:47;;;;;;;5.53;1.70;;;15.10;99.90;;;;;;5023947;28;20089;-90
2022/02/15 12:30:16;;;;;;;3.40;1.52;;;15.10;99.90;;;;;;5024391;28;20160;-90
2022/02/15 12:32:44;;;;;;;8.38;2.20;;;15.10;99.90;;;;;;5038364;28;20018;-93
2022/02/15 12:35:11;;;;;;;4.80;1.70;;;15.40;99.90;;;;;;5022505;28;20467;-91
2022/02/15 12:37:37;;;;;;;8.10;1.83;;;15.60;99.90;;;;;;5026886;28;20021;-90
2022/02/15 12:40:06;;;;;;;5.85;1.33;;;15.80;99.90;;;;;;5024103;28;20049;-90
2022/02/15 12:42:34;;;;;;;6.05;1.40;;;15.80;99.90;;;;;;5021011;28;20033;-91
2022/02/15 12:45:08;;;;;;;5.43;1.60;;;15.60;99.90;;;;;;5037669;28;20067;-92
2022/02/15 12:47:37;;;;;;;4.65;1.38;;;15.00;99.90;;;;;;5021407;28;20061;-90
2022/02/15 12:50:04;;;;;;;3.90;1.58;;;14.30;99.90;;;;;;5024815;28;20430;-91
2022/02/15 12:52:31;;;;;;;8.02;1.75;;;13.90;99.90;;;;;;5019375;28;20033;-89
2022/02/15 12:54:58;;;;;;;5.65;1.50;;;13.60;99.90;;;;;;5019464;28;20132;-91
2022/02/15 12:57:25;;;;;;;5.93;1.38;;;13.10;99.90;;;;;;5019108;28;20095;-90
2022/02/15 12:59:53;;;;;;;5.57;1.42;;;12.70;99.90;;;;;;5025759;28;20100;-91
2022/02/15 13:02:22;;;;;;;4.70;1.27;;;12.50;99.90;;;;;;5004662;28;20038;-89
2022/02/15 13:04:50;;;;;;;3.38;1.25;;;12.40;99.90;;;;;;5020217;28;20033;-88
2022/02/15 13:07:17;;;;;;;5.80;1.48;;;12.70;99.90;;;;;;5018208;28;20040;-87
2022/02/15 13:09:52;;;;;;;3.47;1.00;;;12.90;99.90;;;;;;5035130;28;20037;-89
2022/02/15 13:12:24;;;;;;;4.78;1.02;;;13.50;99.90;;;;;;5024995;28;20043;-90
2022/02/15 13:14:54;;;;;;;6.38;1.55;;;13.60;99.90;;;;;;5026465;28;20087;-88
2022/02/15 13:17:21;;;;;;;4.80;1.58;;;13.40;99.90;;;;;;5015938;28;20018;-90
2022/02/15 13:19:47;;;;;;;8.90;1.70;;;13.00;99.90;;;;;;5016779;28;20041;-88
2022/02/15 13:22:18;;;;;;;5.22;2.03;;;12.60;99.90;;;;;;5016215;28;20056;-86
2022/02/15 13:24:56;;;;;;;7.55;2.20;;;12.30;99.90;;;;;;5016491;28;20051;-89
2022/02/15 13:27:37;;;;;;;9.75;2.25;;;12.10;99.90;;;;;;5017564;28;20091;-89
2022/02/15 13:30:25;;;;;;;6.78;2.00;;;11.90;99.90;;;;;;5022181;28;20041;-89
2022/02/15 13:33:03;;;;;;;6.10;1.83;;;11.70;99.90;;;;;;5031924;28;20033;-90
2022/02/15 13:35:31;;;;;;;5.00;1.33;;;11.70;99.90;;;;;;5035352;28;20036;-90
2022/02/15 13:37:58;;;;;;;5.30;1.50;;;12.20;99.90;;;;;;5018543;28;20033;-89
2022/02/15 13:40:28;;;;;;;6.65;1.65;;;12.40;99.90;;;;;;5018181;28;20029;-89
2022/02/15 13:42:55;;;;;;;4.70;1.27;;;12.70;99.90;;;;;;5018471;28;20029;-89
2022/02/15 13:45:22;;;;;;;5.40;1.60;;;13.20;99.90;;;;;;5035770;28;20040;-90
2022/02/15 13:47:47;;;;;;;4.57;1.10;;;13.30;99.90;;;;;;5018506;28;20026;-89
2022/02/15 13:50:13;;;;;;;4.97;1.20;;;13.70;99.90;;;;;;5019610;28;20037;-89
2022/02/15 13:52:39;;;;;;;5.85;1.20;;;14.00;99.90;;;;;;5028250;28;20029;-89
2022/02/15 13:55:06;;;;;;;7.45;1.00;;;14.10;99.90;;;;;;5035969;28;20110;-90
2022/02/15 13:57:32;;;;;;;6.57;1.33;;;14.00;99.90;;;;;;5022572;28;20033;-89
2022/02/15 13:59:59;;;;;;;6.63;1.40;;;13.80;99.90;;;;;;5023819;28;20042;-91
2022/02/15 14:02:25;;;;;;;7.90;1.40;;;13.50;99.90;;;;;;5017310;28;20479;-91
2022/02/15 14:04:52;;;;;;;4.22;1.08;;;13.20;99.90;;;;;;5017311;28;20144;-89
2022/02/15 14:07:18;;;;;;;5.78;1.10;;;12.80;99.90;;;;;;5016903;28;20037;-89
2022/02/15 14:09:45;;;;;;;6.28;1.25;;;12.40;99.90;;;;;;5016003;28;20072;-90
2022/02/15 14:12:15;;;;;;;5.07;1.60;;;12.00;99.90;;;;;;5016152;28;20029;-91
2022/02/15 14:14:42;;;;;;;8.70;1.63;;;11.60;99.90;;;;;;5016815;28;20040;-90
2022/02/15 14:19:52;;;;;;;4.90;1.50;;;11.20;99.90;;;;;;5031394;28;20049;-90
2022/02/15 14:22:18;;;;;;;4.45;1.73;;;11.10;99.90;;;;;;5030124;28;20034;-91
2022/02/15 14:24:44;;;;;;;7.10;1.70;;;11.00;99.90;;;;;;5012319;28;20056;-87